Time;durP1;ratioP1;P1;durP2;ratioP2;P2;SDS_P1;SDS_P2;PMS_P1;PMS_P2;Temp;Humidity;BMP_temperature;BMP_pressure;BME280_temperature;BME280_humidity;BME280_pressure;Samples;Min_cycle;Max_cycle;Signal;HPM_P1;HPM_P2
2022/03/08 00:00:27;;;;;;;45.63;32.35;;;;;;;7.96;39.63;98770.78;4915821;29;20028;-49
2022/03/08 00:02:54;;;;;;;34.85;27.55;;;;;;;8.23;39.28;98766.69;4915641;29;20123;-50
2022/03/08 00:05:22;;;;;;;35.70;25.33;;;;;;;8.53;39.15;98761.41;4915538;29;20397;-49
2022/03/08 00:07:48;;;;;;;46.97;33.30;;;;;;;8.68;38.32;98761.38;4916777;29;20059;-49
2022/03/08 00:10:16;;;;;;;35.22;25.63;;;;;;;8.80;38.58;98759.88;4915439;29;20052;-48
2022/03/08 00:12:42;;;;;;;33.70;23.73;;;;;;;8.77;38.28;98762.88;4916421;29;20048;-49
2022/03/08 00:15:10;;;;;;;35.70;25.90;;;;;;;8.78;38.10;98764.50;4915389;29;20028;-49
2022/03/08 00:17:37;;;;;;;29.95;24.30;;;;;;;8.65;39.20;98765.16;4916634;29;20091;-49
2022/03/08 00:20:06;;;;;;;39.33;33.00;;;;;;;8.44;40.67;98765.97;4916487;29;20573;-49
2022/03/08 00:22:33;;;;;;;31.08;25.80;;;;;;;8.32;40.26;98764.78;4915188;29;20051;-49
2022/03/08 00:25:01;;;;;;;31.98;25.85;;;;;;;8.22;39.88;98774.72;4915223;29;20032;-49
2022/03/08 00:27:28;;;;;;;39.83;29.38;;;;;;;8.01;39.75;98768.44;4915898;29;20020;-50
2022/03/08 00:29:54;;;;;;;36.83;28.35;;;;;;;7.78;39.40;98763.28;4916437;29;20103;-49
2022/03/08 00:32:19;;;;;;;71.68;56.63;;;;;;;7.39;40.45;98769.56;4914884;29;20032;-49
2022/03/08 00:34:45;;;;;;;52.80;44.92;;;;;;;7.23;41.13;98765.31;4916329;29;20047;-49
2022/03/08 00:37:11;;;;;;;79.18;64.82;;;;;;;7.28;41.25;98765.56;4899301;29;20047;-49
2022/03/08 00:39:37;;;;;;;83.15;63.47;;;;;;;7.56;41.38;98770.22;4915259;29;20035;-49
2022/03/08 00:42:03;;;;;;;37.95;28.05;;;;;;;7.90;40.56;98772.31;4916280;29;20379;-49
2022/03/08 00:44:29;;;;;;;43.83;30.60;;;;;;;7.99;40.01;98763.38;4916209;29;20116;-49
2022/03/08 00:46:54;;;;;;;39.10;25.38;;;;;;;7.57;40.64;98771.84;4916118;29;20024;-50
2022/03/08 00:49:20;;;;;;;32.83;24.48;;;;;;;7.28;41.86;98765.56;4916349;29;20167;-49
2022/03/08 00:51:46;;;;;;;33.67;25.67;;;;;;;7.47;41.78;98772.09;4914686;29;20032;-49
2022/03/08 00:54:12;;;;;;;33.42;22.58;;;;;;;7.97;40.36;98775.03;4916003;29;20401;-49
2022/03/08 00:56:37;;;;;;;35.50;28.52;;;;;;;8.37;39.66;98770.25;4915952;29;20036;-49
2022/03/08 00:59:04;;;;;;;40.88;26.98;;;;;;;8.62;38.50;98776.00;4915962;29;20040;-49
2022/03/08 01:01:30;;;;;;;38.78;26.58;;;;;;;8.71;37.96;98774.91;4915849;29;20028;-49
2022/03/08 01:03:56;;;;;;;33.50;25.77;;;;;;;8.63;37.95;98774.19;4915916;29;20075;-49
2022/03/08 01:06:22;;;;;;;33.13;26.10;;;;;;;8.53;38.51;98767.47;4915856;29;20032;-49
2022/03/08 01:08:48;;;;;;;34.22;27.88;;;;;;;8.57;38.13;98765.28;4915819;29;20032;-49
2022/03/08 01:11:13;;;;;;;31.20;26.77;;;;;;;8.59;38.61;98769.34;4915678;29;20032;-49
2022/03/08 01:13:39;;;;;;;33.20;27.27;;;;;;;8.55;38.27;98770.72;4915596;29;20044;-49
2022/03/08 01:16:05;;;;;;;39.65;26.98;;;;;;;8.11;38.43;98774.19;4914387;29;20039;-50
2022/03/08 01:18:31;;;;;;;32.92;26.92;;;;;;;7.60;39.85;98781.94;4915682;29;20415;-50
2022/03/08 01:20:58;;;;;;;32.03;24.75;;;;;;;7.26;40.83;98778.00;4914417;29;20063;-48
2022/03/08 01:23:24;;;;;;;33.70;26.42;;;;;;;6.99;40.80;98781.97;4915636;29;20055;-49
2022/03/08 01:25:50;;;;;;;37.08;26.92;;;;;;;6.81;41.47;98769.22;4915588;29;20553;-48
2022/03/08 01:28:15;;;;;;;34.38;26.00;;;;;;;6.92;42.07;98776.66;4915613;29;20024;-47
2022/03/08 01:30:41;;;;;;;46.08;30.83;;;;;;;7.19;41.45;98775.28;4914275;29;20025;-48
2022/03/08 01:33:07;;;;;;;38.65;24.13;;;;;;;7.33;40.93;98773.69;4915510;29;20021;-49
2022/03/08 01:35:33;;;;;;;30.67;21.55;;;;;;;7.37;40.34;98777.59;4915475;29;20028;-49
2022/03/08 01:37:58;;;;;;;30.60;22.63;;;;;;;7.30;40.60;98779.25;4930138;29;20024;-49
2022/03/08 01:40:24;;;;;;;37.03;23.15;;;;;;;7.10;41.35;98770.31;4917118;29;20429;-50
2022/03/08 01:42:51;;;;;;;36.60;22.58;;;;;;;7.14;40.71;98772.41;4918139;29;20350;-49
2022/03/08 01:45:19;;;;;;;30.77;20.98;;;;;;;7.12;41.47;98773.56;4919323;29;20031;-50
2022/03/08 01:47:45;;;;;;;35.60;21.98;;;;;;;7.19;41.47;98764.84;4919308;29;20020;-49
2022/03/08 01:50:12;;;;;;;29.80;20.67;;;;;;;7.40;41.07;98758.97;4919260;29;20039;-49
2022/03/08 01:52:39;;;;;;;31.80;22.50;;;;;;;7.47;41.22;98761.66;4917881;29;20035;-50
2022/03/08 01:55:06;;;;;;;41.20;29.58;;;;;;;7.56;40.69;98762.38;4917865;29;20100;-50
2022/03/08 01:57:33;;;;;;;34.90;25.45;;;;;;;7.51;40.61;98757.72;4917871;29;20119;-50
2022/03/08 01:59:59;;;;;;;34.13;27.40;;;;;;;7.48;40.81;98760.66;4919138;29;20071;-50
2022/03/08 02:02:24;;;;;;;37.92;27.90;;;;;;;7.47;41.01;98759.06;4917712;29;20028;-49
2022/03/08 02:04:51;;;;;;;56.20;31.95;;;;;;;7.55;40.68;98758.16;4919009;29;20525;-49
2022/03/08 02:07:17;;;;;;;35.70;25.55;;;;;;;7.62;40.62;98766.88;4917617;29;20032;-50
2022/03/08 02:09:43;;;;;;;41.60;27.52;;;;;;;7.41;40.81;98767.59;4918900;29;20032;-49
2022/03/08 02:12:09;;;;;;;33.67;27.40;;;;;;;6.90;41.51;98757.75;4917167;29;20384;-49
2022/03/08 02:14:35;;;;;;;32.45;25.80;;;;;;;6.69;42.06;98760.19;4917577;29;20032;-49
2022/03/08 02:17:01;;;;;;;32.75;24.00;;;;;;;6.73;42.10;98751.03;4918797;29;20055;-50
2022/03/08 02:19:27;;;;;;;32.42;24.00;;;;;;;6.70;42.45;98754.81;4917458;29;20055;-49
2022/03/08 02:21:54;;;;;;;33.25;23.10;;;;;;;6.60;42.63;98754.22;4917378;29;20032;-49
2022/03/08 02:24:20;;;;;;;53.80;38.85;;;;;;;6.66;42.73;98752.69;4918683;29;20502;-48
2022/03/08 02:26:46;;;;;;;33.25;28.05;;;;;;;6.88;41.95;98741.47;4917348;29;20158;-49
2022/03/08 02:29:12;;;;;;;44.50;30.73;;;;;;;6.83;42.45;98748.19;4917220;29;20380;-50
2022/03/08 02:31:39;;;;;;;35.38;25.60;;;;;;;6.99;42.25;98750.66;4918480;29;20574;-50
2022/03/08 02:34:05;;;;;;;36.30;28.45;;;;;;;7.27;41.77;98747.50;4917189;29;20020;-49
2022/03/08 02:36:31;;;;;;;31.30;22.23;;;;;;;7.58;41.13;98745.53;4917414;29;20040;-50
2022/03/08 02:38:56;;;;;;;32.78;22.15;;;;;;;7.71;40.86;98738.91;4917132;29;20024;-49
2022/03/08 02:41:23;;;;;;;31.90;22.88;;;;;;;7.70;40.52;98735.47;4917021;29;20028;-49
2022/03/08 02:43:49;;;;;;;30.02;24.63;;;;;;;7.71;40.51;98729.25;4918311;29;20028;-49
2022/03/08 02:46:14;;;;;;;33.97;24.95;;;;;;;7.80;40.58;98733.38;4918279;29;20031;-49
2022/03/08 02:48:40;;;;;;;42.33;28.00;;;;;;;7.93;40.48;98730.16;4916925;29;20399;-50
2022/03/08 02:51:06;;;;;;;36.28;27.65;;;;;;;7.94;40.07;98723.91;4917585;29;20024;-49
2022/03/08 02:53:32;;;;;;;46.05;37.28;;;;;;;7.86;40.49;98731.84;4918097;29;20024;-49
2022/03/08 02:55:58;;;;;;;45.22;31.20;;;;;;;7.92;40.04;98720.66;4918059;29;20419;-49
2022/03/08 02:58:24;;;;;;;34.13;27.58;;;;;;;8.02;40.06;98716.97;4918037;29;20028;-49
2022/03/08 03:00:50;;;;;;;44.58;35.83;;;;;;;8.09;40.02;98721.28;4918012;29;20030;-50
2022/03/08 03:03:16;;;;;;;44.28;35.97;;;;;;;8.00;39.64;98725.78;4916949;29;20052;-50
2022/03/08 03:05:42;;;;;;;32.20;27.33;;;;;;;7.82;39.75;98721.94;4916590;29;20036;-49
2022/03/08 03:08:08;;;;;;;32.03;26.52;;;;;;;7.27;40.38;98724.00;4916713;29;20056;-49
2022/03/08 03:10:35;;;;;;;35.35;26.38;;;;;;;6.85;41.36;98726.16;4916646;29;20506;-48
2022/03/08 03:13:01;;;;;;;36.42;28.45;;;;;;;6.66;42.02;98729.22;4917421;29;20056;-49
2022/03/08 03:15:28;;;;;;;44.45;29.42;;;;;;;6.55;42.33;98726.03;4917749;29;20028;-49
2022/03/08 03:17:54;;;;;;;39.28;28.17;;;;;;;6.65;42.21;98735.44;4917672;29;20585;-50
2022/03/08 03:20:22;;;;;;;46.83;32.42;;;;;;;6.75;41.96;98734.22;4917624;29;20020;-50
2022/03/08 03:22:49;;;;;;;42.00;29.92;;;;;;;6.81;41.93;98735.31;4916297;29;20107;-49
2022/03/08 03:25:16;;;;;;;47.88;37.10;;;;;;;6.64;42.01;98734.63;4916188;29;20028;-49
2022/03/08 03:27:43;;;;;;;43.67;35.05;;;;;;;6.40;42.48;98738.22;4916245;29;20036;-50
2022/03/08 03:30:12;;;;;;;44.42;29.50;;;;;;;6.01;43.29;98736.44;4916251;29;20024;-49
2022/03/08 03:32:39;;;;;;;38.75;27.17;;;;;;;5.77;43.86;98724.28;4916153;29;20561;-49
2022/03/08 03:35:06;;;;;;;45.42;32.78;;;;;;;5.68;43.85;98733.94;4916078;29;20387;-48
2022/03/08 03:37:33;;;;;;;45.63;32.25;;;;;;;5.71;44.19;98737.97;4917372;29;20035;-49
2022/03/08 03:39:58;;;;;;;43.00;31.85;;;;;;;5.72;44.27;98732.59;4917349;29;20028;-50
2022/03/08 03:42:24;;;;;;;32.53;24.85;;;;;;;5.80;44.59;98739.59;4915994;29;20092;-49
2022/03/08 03:44:50;;;;;;;36.40;27.98;;;;;;;5.80;45.28;98732.59;4917272;29;20020;-49
2022/03/08 03:47:15;;;;;;;34.17;25.17;;;;;;;5.71;44.69;98730.97;4917180;29;20070;-49
2022/03/08 03:49:41;;;;;;;33.58;25.88;;;;;;;5.66;45.00;98729.88;4917198;29;20072;-49
2022/03/08 03:52:07;;;;;;;38.30;26.83;;;;;;;5.59;45.00;98732.31;4916949;29;20028;-48
2022/03/08 03:54:33;;;;;;;34.75;25.38;;;;;;;5.39;45.49;98724.91;4915817;29;20079;-50
2022/03/08 03:56:58;;;;;;;34.30;25.67;;;;;;;5.35;45.62;98728.81;4916912;29;20084;-49
2022/03/08 03:59:24;;;;;;;43.90;27.67;;;;;;;5.36;45.38;98733.03;4916980;29;20028;-49
2022/03/08 04:01:50;;;;;;;37.80;25.38;;;;;;;5.35;46.11;98734.00;4914754;29;20051;-49
2022/03/08 04:04:16;;;;;;;38.75;24.58;;;;;;;5.42;45.82;98728.16;4915513;29;20601;-49
2022/03/08 04:06:42;;;;;;;35.10;24.25;;;;;;;5.39;45.63;98727.50;4916856;29;20028;-48
2022/03/08 04:09:08;;;;;;;33.72;25.70;;;;;;;5.33;45.52;98729.94;4916807;29;20028;-49
2022/03/08 04:11:34;;;;;;;34.40;26.05;;;;;;;5.42;46.44;98728.16;4916637;29;20058;-49
2022/03/08 04:14:00;;;;;;;43.83;24.77;;;;;;;5.46;46.25;98734.63;4915218;29;20039;-49
2022/03/08 04:16:26;;;;;;;39.15;26.58;;;;;;;5.39;45.95;98729.28;4915333;29;20024;-49
2022/03/08 04:18:52;;;;;;;36.83;25.58;;;;;;;5.39;46.79;98739.69;4916598;29;20537;-49
2022/03/08 04:21:17;;;;;;;32.78;25.92;;;;;;;5.50;45.96;98733.34;4916606;29;20494;-48
2022/03/08 04:23:43;;;;;;;34.88;26.15;;;;;;;5.40;45.21;98739.53;4916576;29;20512;-49
2022/03/08 04:26:09;;;;;;;44.42;28.20;;;;;;;5.29;45.42;98746.84;4915180;29;20031;-49
2022/03/08 04:28:35;;;;;;;41.42;26.50;;;;;;;5.20;46.12;98746.06;4915152;29;20123;-48
2022/03/08 04:31:00;;;;;;;41.17;27.77;;;;;;;5.35;46.05;98736.63;4916378;29;20152;-49
2022/03/08 04:33:26;;;;;;;37.50;28.27;;;;;;;5.18;45.63;98748.00;4915006;29;20048;-49
2022/03/08 04:35:52;;;;;;;43.28;29.48;;;;;;;5.15;46.19;98756.13;4915005;29;20024;-49
2022/03/08 04:38:18;;;;;;;37.90;27.98;;;;;;;5.06;46.11;98754.53;4915027;29;20039;-48
2022/03/08 04:40:43;;;;;;;44.38;29.27;;;;;;;4.73;46.40;98752.72;4914944;29;20557;-47
2022/03/08 04:43:09;;;;;;;37.85;26.95;;;;;;;4.70;47.09;98757.44;4916170;29;20100;-48
2022/03/08 04:45:35;;;;;;;40.80;27.15;;;;;;;4.64;47.13;98766.66;4916109;29;20076;-49
2022/03/08 04:48:00;;;;;;;43.35;29.23;;;;;;;4.38;47.21;98759.78;4914859;29;20043;-49
2022/03/08 04:50:26;;;;;;;49.85;31.00;;;;;;;4.31;47.44;98761.41;4914811;29;20083;-49
2022/03/08 04:52:52;;;;;;;43.50;30.90;;;;;;;4.47;48.16;98767.63;4915906;29;20376;-48
2022/03/08 04:55:19;;;;;;;37.25;24.00;;;;;;;4.57;47.74;98766.50;4916015;29;20059;-49
2022/03/08 04:57:46;;;;;;;38.60;23.52;;;;;;;4.71;47.88;98754.69;4914734;29;20494;-49
2022/03/08 05:00:13;;;;;;;35.05;24.13;;;;;;;5.20;47.04;98759.06;4914632;29;20036;-49
2022/03/08 05:02:43;;;;;;;33.72;24.60;;;;;;;5.71;46.47;98758.81;4915931;29;20063;-49
2022/03/08 05:05:10;;;;;;;48.78;29.13;;;;;;;6.19;45.28;98757.03;4915836;29;20024;-49
2022/03/08 05:07:36;;;;;;;40.58;26.10;;;;;;;6.51;44.15;98756.03;4914547;29;20119;-49
2022/03/08 05:10:07;;;;;;;37.30;28.13;;;;;;;6.62;43.58;98764.47;4915804;29;20031;-49
2022/03/08 05:12:34;;;;;;;44.88;29.27;;;;;;;6.66;43.70;98763.13;4914019;29;20056;-49
2022/03/08 05:14:59;;;;;;;35.10;24.63;;;;;;;6.76;43.84;98761.09;4914474;29;20127;-49
2022/03/08 05:17:26;;;;;;;40.92;31.20;;;;;;;6.95;42.55;98762.44;4915713;29;20103;-48
2022/03/08 05:19:52;;;;;;;49.67;36.70;;;;;;;6.68;43.08;98762.00;4915689;29;20034;-49
2022/03/08 05:22:18;;;;;;;38.35;26.33;;;;;;;6.42;42.95;98764.09;4914465;29;20028;-49
2022/03/08 05:24:44;;;;;;;49.08;34.58;;;;;;;6.23;43.81;98767.94;4914438;29;20589;-49
2022/03/08 05:27:10;;;;;;;44.60;29.75;;;;;;;6.33;43.96;98760.72;4914363;29;20028;-49
2022/03/08 05:29:36;;;;;;;33.88;26.83;;;;;;;6.47;43.35;98759.97;4914371;29;20118;-49
2022/03/08 05:32:02;;;;;;;45.45;29.25;;;;;;;6.49;43.77;98758.00;4914257;29;20107;-50
2022/03/08 05:34:28;;;;;;;41.67;29.88;;;;;;;6.71;43.60;98758.22;4914317;29;20454;-49
2022/03/08 05:36:53;;;;;;;42.75;28.92;;;;;;;6.85;42.98;98754.84;4915542;29;20048;-48
2022/03/08 05:39:19;;;;;;;46.35;33.70;;;;;;;7.02;42.71;98749.50;4915559;29;20062;-50
2022/03/08 05:41:45;;;;;;;44.70;26.45;;;;;;;7.19;42.27;98754.41;4915507;29;20032;-49
2022/03/08 05:44:11;;;;;;;31.23;23.27;;;;;;;7.38;41.02;98754.88;4915536;29;20043;-49
2022/03/08 05:46:36;;;;;;;32.55;22.10;;;;;;;7.17;41.88;98766.03;4915479;29;20052;-50
2022/03/08 05:49:03;;;;;;;47.42;31.15;;;;;;;6.92;41.72;98758.41;4915449;29;20032;-49
2022/03/08 05:51:28;;;;;;;39.65;30.05;;;;;;;6.89;42.17;98763.16;4915396;29;20031;-49
2022/03/08 05:53:54;;;;;;;43.13;26.02;;;;;;;6.99;42.55;98763.72;4915404;29;20025;-49
2022/03/08 05:56:20;;;;;;;41.15;29.38;;;;;;;7.09;41.60;98763.47;4915412;29;20031;-49
2022/03/08 05:58:46;;;;;;;41.53;29.23;;;;;;;6.93;42.30;98759.19;4914102;29;20029;-49
2022/03/08 06:01:12;;;;;;;43.83;27.98;;;;;;;6.76;42.40;98754.09;4914016;29;20023;-49
2022/03/08 06:03:38;;;;;;;39.55;27.10;;;;;;;6.67;42.55;98756.94;4915348;29;20028;-49
2022/03/08 06:06:04;;;;;;;34.15;27.92;;;;;;;6.56;42.96;98758.97;4915250;29;20039;-49
2022/03/08 06:08:29;;;;;;;36.92;29.00;;;;;;;6.45;43.13;98759.34;4915290;29;20024;-48
2022/03/08 06:10:55;;;;;;;43.70;30.48;;;;;;;6.37;42.94;98760.19;4915240;29;20462;-49
2022/03/08 06:13:21;;;;;;;45.42;30.40;;;;;;;6.30;43.27;98763.66;4914932;29;20055;-49
2022/03/08 06:15:46;;;;;;;42.25;30.08;;;;;;;6.19;43.44;98764.84;4913865;29;20114;-49
2022/03/08 06:18:13;;;;;;;35.47;28.42;;;;;;;6.03;43.82;98776.16;4913908;29;20111;-49
2022/03/08 06:20:38;;;;;;;39.25;30.33;;;;;;;6.07;44.05;98769.63;4929715;29;20035;-49
2022/03/08 06:23:05;;;;;;;43.08;28.52;;;;;;;6.37;43.47;98775.03;4913857;29;20471;-49
2022/03/08 06:25:30;;;;;;;36.03;27.88;;;;;;;6.59;43.05;98786.47;4916437;29;20187;-48
2022/03/08 06:27:56;;;;;;;36.20;28.38;;;;;;;6.77;42.40;98787.00;4917322;29;20035;-49
2022/03/08 06:30:22;;;;;;;39.65;30.33;;;;;;;6.88;41.82;98782.38;4918590;29;20032;-48
2022/03/08 06:32:48;;;;;;;48.65;32.55;;;;;;;7.05;41.92;98781.28;4918483;29;20138;-49
2022/03/08 06:35:14;;;;;;;38.50;29.08;;;;;;;7.54;41.47;98795.69;4917208;29;20028;-49
2022/03/08 06:37:40;;;;;;;41.25;27.52;;;;;;;7.97;40.65;98795.94;4917106;29;20066;-49
2022/03/08 06:40:07;;;;;;;30.23;26.90;;;;;;;8.29;39.26;98799.13;4917086;29;20030;-48
2022/03/08 06:42:34;;;;;;;38.72;29.77;;;;;;;8.27;38.94;98793.28;4917098;29;20087;-49
2022/03/08 06:45:00;;;;;;;41.33;30.48;;;;;;;8.31;39.88;98791.91;4916993;29;20558;-49
2022/03/08 06:47:26;;;;;;;51.28;31.58;;;;;;;8.25;39.42;98798.69;4917037;29;20028;-49
2022/03/08 06:49:52;;;;;;;42.97;29.10;;;;;;;8.01;39.85;98799.81;4932755;29;20032;-49
2022/03/08 06:52:17;;;;;;;40.30;28.98;;;;;;;7.78;40.86;98805.91;4916805;29;20575;-49
2022/03/08 06:54:43;;;;;;;36.13;28.73;;;;;;;7.69;40.44;98814.81;4916793;29;20494;-50
2022/03/08 06:57:09;;;;;;;36.78;30.70;;;;;;;7.50;40.55;98816.13;4916817;29;20454;-49
2022/03/08 06:59:35;;;;;;;44.05;33.47;;;;;;;7.36;41.11;98817.75;4918082;29;20032;-49
2022/03/08 07:02:00;;;;;;;38.72;29.05;;;;;;;7.24;41.15;98818.31;4917997;29;20084;-49
2022/03/08 07:04:26;;;;;;;33.90;26.45;;;;;;;7.23;41.05;98819.31;4918014;29;20032;-49
2022/03/08 07:06:52;;;;;;;35.35;26.35;;;;;;;7.38;41.00;98821.00;4917922;29;20032;-49
2022/03/08 07:09:18;;;;;;;42.83;30.80;;;;;;;7.43;40.59;98820.44;4916624;29;20115;-48
2022/03/08 07:11:44;;;;;;;42.67;29.65;;;;;;;7.58;40.55;98825.69;4917752;29;20081;-49
2022/03/08 07:14:15;;;;;;;38.42;29.05;;;;;;;8.08;40.90;98821.59;4916374;29;20131;-49
2022/03/08 07:16:42;;;;;;;34.33;28.48;;;;;;;8.73;38.76;98824.41;4917758;29;20036;-50
2022/03/08 07:19:08;;;;;;;39.25;29.02;;;;;;;9.19;38.20;98824.91;4917733;29;20123;-49
2022/03/08 07:21:34;;;;;;;34.10;27.33;;;;;;;9.45;37.27;98822.69;4916442;29;20532;-50
2022/03/08 07:24:00;;;;;;;35.83;29.05;;;;;;;9.83;37.07;98828.41;4917618;29;20021;-50
2022/03/08 07:26:25;;;;;;;40.83;31.25;;;;;;;10.06;36.24;98829.94;4916287;29;20379;-50
2022/03/08 07:28:51;;;;;;;34.40;30.42;;;;;;;10.26;35.77;98819.56;4917566;29;20024;-49
2022/03/08 07:31:17;;;;;;;35.28;28.52;;;;;;;10.49;35.82;98825.34;4917512;29;20491;-48
2022/03/08 07:33:42;;;;;;;43.65;32.83;;;;;;;10.79;37.19;98820.59;4917381;29;20028;-49
2022/03/08 07:36:08;;;;;;;43.90;32.10;;;;;;;10.96;38.26;98817.59;4917356;29;20079;-49
2022/03/08 07:38:34;;;;;;;48.95;35.78;;;;;;;11.48;39.70;98818.66;4916131;29;20558;-50
2022/03/08 07:41:01;;;;;;;39.78;29.35;;;;;;;11.84;35.28;98817.41;4917340;29;20028;-49
2022/03/08 07:43:26;;;;;;;42.22;27.58;;;;;;;12.24;35.58;98817.34;4916316;29;20441;-50
2022/03/08 07:45:52;;;;;;;31.65;27.90;;;;;;;12.44;33.09;98821.72;4917224;29;20028;-50
2022/03/08 07:48:18;;;;;;;46.28;29.60;;;;;;;12.59;33.93;98819.63;4917280;29;20107;-49
2022/03/08 07:50:44;;;;;;;35.35;28.75;;;;;;;12.82;31.56;98832.28;4917106;29;20624;-50
2022/03/08 07:53:10;;;;;;;43.88;29.10;;;;;;;13.16;31.45;98824.97;4915781;29;20169;-50
2022/03/08 07:55:35;;;;;;;48.33;29.48;;;;;;;13.50;30.84;98821.09;4916991;29;20032;-50
2022/03/08 07:58:03;;;;;;;41.22;29.48;;;;;;;13.26;30.32;98833.22;4917029;29;20076;-50
2022/03/08 08:00:30;;;;;;;36.47;29.13;;;;;;;13.09;31.12;98829.47;4917223;29;20028;-50
2022/03/08 08:02:56;;;;;;;46.30;31.00;;;;;;;13.30;30.82;98821.25;4915605;29;20096;-50
2022/03/08 08:05:22;;;;;;;43.60;28.80;;;;;;;13.17;30.61;98826.56;4915614;29;20036;-48
2022/03/08 08:07:48;;;;;;;55.75;31.85;;;;;;;13.09;30.79;98825.00;4915576;29;20133;-50
2022/03/08 08:10:13;;;;;;;42.45;28.40;;;;;;;12.89;32.42;98825.13;4915450;29;20072;-50
2022/03/08 08:12:40;;;;;;;45.92;31.15;;;;;;;12.24;33.74;98824.44;4916432;29;20063;-50
2022/03/08 08:15:07;;;;;;;52.72;31.02;;;;;;;11.75;34.36;98837.84;4931258;29;20020;-49
2022/03/08 08:17:33;;;;;;;40.70;29.45;;;;;;;11.73;34.45;98828.53;4915333;29;20521;-49
2022/03/08 08:19:59;;;;;;;43.55;29.88;;;;;;;11.76;35.66;98828.94;4915361;29;20024;-50
2022/03/08 08:22:25;;;;;;;44.28;26.85;;;;;;;12.10;33.96;98824.44;4915281;29;20525;-50
2022/03/08 08:24:50;;;;;;;40.85;29.80;;;;;;;12.59;32.85;98828.31;4915236;29;20163;-49
2022/03/08 08:27:17;;;;;;;55.65;39.55;;;;;;;13.57;31.41;98821.03;4916458;29;20390;-49
2022/03/08 08:29:42;;;;;;;54.42;41.72;;;;;;;14.42;29.52;98816.91;4915139;29;20030;-50
2022/03/08 08:32:08;;;;;;;83.57;58.58;;;;;;;14.21;30.04;98820.81;4915003;29;20024;-50
2022/03/08 08:34:34;;;;;;;46.78;39.22;;;;;;;14.61;29.53;98815.06;4915010;29;20079;-50
2022/03/08 08:37:02;;;;;;;45.80;31.60;;;;;;;14.70;29.24;98809.25;4915208;29;20048;-50
2022/03/08 08:39:28;;;;;;;36.10;25.00;;;;;;;15.36;27.90;98806.66;4915035;29;20030;-49
2022/03/08 08:41:53;;;;;;;45.20;32.13;;;;;;;16.00;27.05;98801.53;4914933;29;20032;-50
2022/03/08 08:44:19;;;;;;;43.15;32.55;;;;;;;16.09;26.92;98799.31;4916166;29;20514;-48
2022/03/08 08:46:46;;;;;;;44.22;33.08;;;;;;;15.43;27.49;98798.63;4914819;29;20039;-50
2022/03/08 08:49:12;;;;;;;53.65;31.35;;;;;;;15.76;27.48;98808.69;4914377;29;20047;-50
2022/03/08 08:51:38;;;;;;;55.25;33.45;;;;;;;16.04;27.08;98797.38;4899040;29;20417;-50
2022/03/08 08:54:04;;;;;;;42.00;29.92;;;;;;;16.41;27.04;98785.66;4914804;29;20115;-50
2022/03/08 08:56:30;;;;;;;41.88;30.13;;;;;;;17.42;25.47;98787.66;4914704;29;20120;-51
2022/03/08 08:58:56;;;;;;;42.88;34.33;;;;;;;18.23;24.44;98785.34;4914690;29;20024;-50
2022/03/08 09:01:22;;;;;;;41.90;29.60;;;;;;;18.09;24.41;98790.22;4914631;29;20525;-50
2022/03/08 09:03:48;;;;;;;43.65;31.88;;;;;;;18.19;24.12;98778.94;4915878;29;20047;-50
2022/03/08 09:06:13;;;;;;;41.00;30.30;;;;;;;18.71;24.18;98781.09;4914680;29;20394;-50
2022/03/08 09:08:39;;;;;;;42.45;30.08;;;;;;;19.51;22.84;98785.75;4915873;29;20392;-50
2022/03/08 09:11:08;;;;;;;43.97;31.38;;;;;;;19.91;22.43;98777.22;4915817;29;20028;-50
2022/03/08 09:13:34;;;;;;;30.42;24.80;;;;;;;19.91;22.66;98779.09;4915508;29;20048;-50
2022/03/08 09:16:00;;;;;;;37.30;27.40;;;;;;;20.15;22.02;98784.78;4915755;29;20051;-50
2022/03/08 09:18:25;;;;;;;35.50;25.60;;;;;;;19.63;22.34;98780.22;4914579;29;20047;-51
2022/03/08 09:20:51;;;;;;;50.58;28.38;;;;;;;20.07;22.65;98780.75;4915676;29;20406;-50
2022/03/08 09:23:17;;;;;;;35.63;27.33;;;;;;;20.39;22.20;98771.81;4914421;29;20032;-49
2022/03/08 09:25:43;;;;;;;43.08;29.95;;;;;;;20.45;21.87;98780.63;4914319;29;20526;-50
2022/03/08 09:28:08;;;;;;;46.35;29.65;;;;;;;20.43;22.20;98780.88;4915662;29;20028;-50
2022/03/08 09:30:36;;;;;;;38.85;28.73;;;;;;;20.53;21.72;98782.78;4914347;29;20024;-50
2022/03/08 09:33:03;;;;;;;34.10;23.80;;;;;;;20.65;21.60;98779.91;4915559;29;20060;-50
2022/03/08 09:35:30;;;;;;;31.48;23.42;;;;;;;20.61;21.17;98778.84;4915561;29;20498;-49
2022/03/08 09:37:56;;;;;;;40.72;25.10;;;;;;;20.37;21.68;98781.94;4915566;29;20028;-50
2022/03/08 09:40:23;;;;;;;36.90;24.88;;;;;;;20.27;21.81;98781.91;4915511;29;20025;-51
2022/03/08 09:42:50;;;;;;;43.97;28.58;;;;;;;20.50;21.98;98777.97;4915504;29;20495;-50
2022/03/08 09:45:17;;;;;;;38.97;28.60;;;;;;;20.76;21.13;98778.84;4914167;29;20024;-50
2022/03/08 09:47:43;;;;;;;47.85;30.35;;;;;;;20.74;21.51;98775.63;4915474;29;20491;-50
2022/03/08 09:50:11;;;;;;;35.38;24.17;;;;;;;20.86;21.48;98776.19;4914179;29;20077;-50
2022/03/08 09:52:39;;;;;;;42.97;29.00;;;;;;;21.39;20.85;98769.78;4915391;29;20494;-50
2022/03/08 09:55:06;;;;;;;35.15;25.75;;;;;;;21.22;20.79;98762.06;4915668;29;20020;-50
2022/03/08 09:57:34;;;;;;;41.33;29.27;;;;;;;20.49;21.76;98768.38;4915341;29;20039;-51
2022/03/08 10:00:00;;;;;;;42.97;28.02;;;;;;;20.12;22.16;98763.97;4914685;29;20028;-50
2022/03/08 10:02:41;;;;;;;35.70;27.40;;;;;;;20.61;21.87;98760.16;4919098;29;20032;-50
2022/03/08 10:05:07;;;;;;;44.08;24.55;;;;;;;20.78;21.41;98762.56;4919130;29;20111;-50
2022/03/08 10:07:33;;;;;;;31.67;22.55;;;;;;;21.03;21.33;98757.25;4917746;29;20032;-50
2022/03/08 10:09:59;;;;;;;26.20;23.25;;;;;;;21.39;20.50;98751.91;4917716;29;20035;-51
2022/03/08 10:12:27;;;;;;;33.45;24.65;;;;;;;21.12;21.04;98752.19;4918614;29;20391;-50
2022/03/08 10:14:53;;;;;;;27.88;22.35;;;;;;;20.69;21.18;98756.97;4918914;29;20032;-50
2022/03/08 10:17:39;;;;;;;25.70;18.65;;;;;;;20.69;21.08;98771.09;4917587;29;20027;-51
2022/03/08 10:20:07;;;;;;;27.98;22.05;;;;;;;21.18;20.73;98758.31;4917540;29;20032;-50
2022/03/08 10:22:37;;;;;;;30.85;23.35;;;;;;;21.17;20.99;98762.88;4917462;29;20036;-50
2022/03/08 10:25:22;;;;;;;37.85;26.58;;;;;;;21.07;20.99;98760.22;4918745;29;20047;-49
2022/03/08 10:27:53;;;;;;;28.13;22.35;;;;;;;21.87;20.46;98757.69;4917488;29;20028;-49
2022/03/08 10:30:20;;;;;;;25.52;19.15;;;;;;;22.06;20.41;98749.06;4918673;29;20491;-50
2022/03/08 10:32:47;;;;;;;26.50;17.42;;;;;;;22.17;20.00;98744.47;4918533;29;20096;-50
2022/03/08 10:35:22;;;;;;;25.52;15.95;;;;;;;23.25;19.03;98739.22;4918606;29;20036;-50
2022/03/08 10:37:48;;;;;;;20.52;14.48;;;;;;;23.72;18.48;98733.09;4918571;29;20034;-51
2022/03/08 10:40:32;;;;;;;19.17;14.60;;;;;;;23.68;18.80;98733.94;4917218;29;20035;-50
2022/03/08 10:43:02;;;;;;;17.50;12.97;;;;;;;23.93;18.30;98731.00;4918536;29;20064;-51
2022/03/08 10:45:29;;;;;;;18.98;10.82;;;;;;;24.04;18.42;98726.28;4918331;29;20025;-50
2022/03/08 10:47:55;;;;;;;16.38;10.10;;;;;;;23.30;18.67;98734.63;4918335;29;20024;-51
2022/03/08 10:50:28;;;;;;;11.55;9.43;;;;;;;22.96;19.17;98731.13;4918270;29;20024;-50
2022/03/08 10:52:57;;;;;;;17.17;10.98;;;;;;;23.07;19.78;98730.00;4918230;29;20036;-50
2022/03/08 10:55:31;;;;;;;18.42;11.43;;;;;;;23.58;18.79;98732.16;4916844;29;20028;-51
2022/03/08 10:58:03;;;;;;;14.23;10.73;;;;;;;23.32;18.84;98713.72;4918430;29;20033;-51
2022/03/08 11:00:31;;;;;;;17.45;12.48;;;;;;;22.99;19.45;98714.53;4916952;29;20046;-51
2022/03/08 11:03:01;;;;;;;20.65;11.30;;;;;;;22.44;19.43;98720.81;4918025;29;20032;-51
2022/03/08 11:05:33;;;;;;;20.40;12.38;;;;;;;21.84;20.33;98720.03;4918045;29;20020;-50
2022/03/08 11:07:59;;;;;;;18.02;12.73;;;;;;;22.03;20.88;98720.19;4918057;29;20542;-50
2022/03/08 11:10:27;;;;;;;23.58;13.82;;;;;;;22.79;19.44;98716.28;4917788;29;20504;-51
2022/03/08 11:12:54;;;;;;;17.73;11.73;;;;;;;22.88;19.10;98717.28;4917393;29;20040;-50
2022/03/08 11:15:21;;;;;;;65.63;17.73;;;;;;;22.66;19.34;98706.22;4917757;29;20056;-51
2022/03/08 11:17:50;;;;;;;17.92;15.48;;;;;;;22.14;20.52;98705.72;4917732;29;20028;-51